sensor_id;sensor_type;location;lat;lon;timestamp;temperature;humidity
20946;DHT22;10632;51.276;7.116;2023-05-10T00:02:17;11.90;99.90
20946;DHT22;10632;51.276;7.116;2023-05-10T00:04:46;11.90;99.90
20946;DHT22;10632;51.276;7.116;2023-05-10T00:07:15;11.90;99.90
20946;DHT22;10632;51.276;7.116;2023-05-10T00:09:43;11.90;99.90
20946;DHT22;10632;51.276;7.116;2023-05-10T00:12:10;11.90;99.90
20946;DHT22;10632;51.276;7.116;2023-05-10T00:14:37;11.90;99.90
20946;DHT22;10632;51.276;7.116;2023-05-10T00:17:04;11.90;99.90
20946;DHT22;10632;51.276;7.116;2023-05-10T00:19:30;11.90;99.90
20946;DHT22;10632;51.276;7.116;2023-05-10T00:21:59;11.90;99.90
20946;DHT22;10632;51.276;7.116;2023-05-10T00:24:26;11.90;99.90
20946;DHT22;10632;51.276;7.116;2023-05-10T00:26:52;11.90;99.90
20946;DHT22;10632;51.276;7.116;2023-05-10T00:29:20;11.90;99.90
20946;DHT22;10632;51.276;7.116;2023-05-10T00:31:47;11.90;99.90
20946;DHT22;10632;51.276;7.116;2023-05-10T00:34:14;11.90;99.90
20946;DHT22;10632;51.276;7.116;2023-05-10T00:36:44;11.90;99.90
20946;DHT22;10632;51.276;7.116;2023-05-10T00:39:13;11.90;99.90
20946;DHT22;10632;51.276;7.116;2023-05-10T00:41:40;11.90;99.90
20946;DHT22;10632;51.276;7.116;2023-05-10T00:44:06;12.00;99.90
20946;DHT22;10632;51.276;7.116;2023-05-10T00:46:33;11.90;99.90
20946;DHT22;10632;51.276;7.116;2023-05-10T00:49:01;11.90;99.90
20946;DHT22;10632;51.276;7.116;2023-05-10T00:51:29;12.00;99.90
20946;DHT22;10632;51.276;7.116;2023-05-10T00:53:57;12.00;99.90
20946;DHT22;10632;51.276;7.116;2023-05-10T00:56:26;11.90;99.90
20946;DHT22;10632;51.276;7.116;2023-05-10T00:58:55;12.00;99.90
20946;DHT22;10632;51.276;7.116;2023-05-10T01:01:22;11.90;99.90
20946;DHT22;10632;51.276;7.116;2023-05-10T01:03:49;12.00;99.90
20946;DHT22;10632;51.276;7.116;2023-05-10T01:06:16;12.00;99.90
20946;DHT22;10632;51.276;7.116;2023-05-10T01:08:43;12.00;99.90
20946;DHT22;10632;51.276;7.116;2023-05-10T01:11:10;12.00;99.90
20946;DHT22;10632;51.276;7.116;2023-05-10T01:13:40;12.00;99.90
20946;DHT22;10632;51.276;7.116;2023-05-10T01:16:08;12.00;99.90
20946;DHT22;10632;51.276;7.116;2023-05-10T01:18:38;11.90;99.90
20946;DHT22;10632;51.276;7.116;2023-05-10T01:21:14;11.90;99.90
20946;DHT22;10632;51.276;7.116;2023-05-10T01:24:14;11.90;99.90
20946;DHT22;10632;51.276;7.116;2023-05-10T01:27:17;11.90;99.90
20946;DHT22;10632;51.276;7.116;2023-05-10T01:30:08;11.90;99.90
20946;DHT22;10632;51.276;7.116;2023-05-10T01:32:40;11.90;99.90
20946;DHT22;10632;51.276;7.116;2023-05-10T01:35:15;11.90;99.90
20946;DHT22;10632;51.276;7.116;2023-05-10T01:37:50;11.90;99.90
20946;DHT22;10632;51.276;7.116;2023-05-10T01:40:25;11.90;99.90
20946;DHT22;10632;51.276;7.116;2023-05-10T01:43:02;11.90;99.90
20946;DHT22;10632;51.276;7.116;2023-05-10T01:45:33;11.90;99.90
20946;DHT22;10632;51.276;7.116;2023-05-10T01:48:10;11.90;99.90
20946;DHT22;10632;51.276;7.116;2023-05-10T01:50:45;11.90;99.90
20946;DHT22;10632;51.276;7.116;2023-05-10T01:53:22;11.90;99.90
20946;DHT22;10632;51.276;7.116;2023-05-10T01:55:52;11.90;99.90
20946;DHT22;10632;51.276;7.116;2023-05-10T01:58:24;11.90;99.90
20946;DHT22;10632;51.276;7.116;2023-05-10T02:00:52;11.80;99.90
20946;DHT22;10632;51.276;7.116;2023-05-10T02:03:23;11.80;99.90
20946;DHT22;10632;51.276;7.116;2023-05-10T02:05:56;11.80;99.90
20946;DHT22;10632;51.276;7.116;2023-05-10T02:08:27;11.80;99.90
20946;DHT22;10632;51.276;7.116;2023-05-10T02:10:55;11.80;99.90
20946;DHT22;10632;51.276;7.116;2023-05-10T02:13:24;11.70;99.90
20946;DHT22;10632;51.276;7.116;2023-05-10T02:15:53;11.70;99.90
20946;DHT22;10632;51.276;7.116;2023-05-10T02:18:23;11.70;99.90
20946;DHT22;10632;51.276;7.116;2023-05-10T02:20:52;11.70;99.90
20946;DHT22;10632;51.276;7.116;2023-05-10T02:23:21;11.70;99.90
20946;DHT22;10632;51.276;7.116;2023-05-10T02:25:49;11.70;99.90
20946;DHT22;10632;51.276;7.116;2023-05-10T02:28:17;11.70;99.90
20946;DHT22;10632;51.276;7.116;2023-05-10T02:30:47;11.70;99.90
20946;DHT22;10632;51.276;7.116;2023-05-10T02:33:15;11.60;99.90
20946;DHT22;10632;51.276;7.116;2023-05-10T02:35:43;11.60;99.90
20946;DHT22;10632;51.276;7.116;2023-05-10T02:38:11;11.60;99.90
20946;DHT22;10632;51.276;7.116;2023-05-10T02:40:41;11.60;99.90
20946;DHT22;10632;51.276;7.116;2023-05-10T02:43:12;11.50;99.90
20946;DHT22;10632;51.276;7.116;2023-05-10T02:45:42;11.50;99.90
20946;DHT22;10632;51.276;7.116;2023-05-10T02:48:10;11.50;99.90
20946;DHT22;10632;51.276;7.116;2023-05-10T02:50:40;11.50;99.90
20946;DHT22;10632;51.276;7.116;2023-05-10T02:53:15;11.40;99.90
20946;DHT22;10632;51.276;7.116;2023-05-10T02:55:45;11.40;99.90
20946;DHT22;10632;51.276;7.116;2023-05-10T02:58:15;11.40;99.90
20946;DHT22;10632;51.276;7.116;2023-05-10T03:00:46;11.40;99.90
20946;DHT22;10632;51.276;7.116;2023-05-10T03:03:13;11.40;99.90
20946;DHT22;10632;51.276;7.116;2023-05-10T03:05:40;11.30;99.90
20946;DHT22;10632;51.276;7.116;2023-05-10T03:08:07;11.40;99.90
20946;DHT22;10632;51.276;7.116;2023-05-10T03:10:41;11.40;99.90
20946;DHT22;10632;51.276;7.116;2023-05-10T03:13:19;11.40;99.90
20946;DHT22;10632;51.276;7.116;2023-05-10T03:15:57;11.30;99.90
20946;DHT22;10632;51.276;7.116;2023-05-10T03:18:37;11.40;99.90
20946;DHT22;10632;51.276;7.116;2023-05-10T03:21:07;11.40;99.90
20946;DHT22;10632;51.276;7.116;2023-05-10T03:23:41;11.40;99.90
20946;DHT22;10632;51.276;7.116;2023-05-10T03:26:12;11.40;99.90
20946;DHT22;10632;51.276;7.116;2023-05-10T03:28:41;11.40;99.90
20946;DHT22;10632;51.276;7.116;2023-05-10T03:31:09;11.40;99.90
20946;DHT22;10632;51.276;7.116;2023-05-10T03:33:36;11.40;99.90
20946;DHT22;10632;51.276;7.116;2023-05-10T03:36:12;11.40;99.90
20946;DHT22;10632;51.276;7.116;2023-05-10T03:38:39;11.40;99.90
20946;DHT22;10632;51.276;7.116;2023-05-10T03:41:06;11.40;99.90
20946;DHT22;10632;51.276;7.116;2023-05-10T03:43:34;11.40;99.90
20946;DHT22;10632;51.276;7.116;2023-05-10T03:46:02;11.40;99.90
20946;DHT22;10632;51.276;7.116;2023-05-10T03:48:29;11.50;99.90
20946;DHT22;10632;51.276;7.116;2023-05-10T03:50:57;11.50;99.90
20946;DHT22;10632;51.276;7.116;2023-05-10T03:53:24;11.50;99.90
20946;DHT22;10632;51.276;7.116;2023-05-10T03:55:52;11.50;99.90
20946;DHT22;10632;51.276;7.116;2023-05-10T03:58:19;11.50;99.90
20946;DHT22;10632;51.276;7.116;2023-05-10T04:00:47;11.50;99.90
20946;DHT22;10632;51.276;7.116;2023-05-10T04:03:14;11.50;99.90
20946;DHT22;10632;51.276;7.116;2023-05-10T04:05:41;11.50;99.90
20946;DHT22;10632;51.276;7.116;2023-05-10T04:08:08;11.50;99.90
20946;DHT22;10632;51.276;7.116;2023-05-10T04:10:35;11.50;99.90
20946;DHT22;10632;51.276;7.116;2023-05-10T04:13:02;11.50;99.90
20946;DHT22;10632;51.276;7.116;2023-05-10T04:15:29;11.50;99.90
20946;DHT22;10632;51.276;7.116;2023-05-10T04:17:58;11.50;99.90
20946;DHT22;10632;51.276;7.116;2023-05-10T04:20:24;11.50;99.90
20946;DHT22;10632;51.276;7.116;2023-05-10T04:22:51;11.50;99.90
20946;DHT22;10632;51.276;7.116;2023-05-10T04:25:19;11.50;99.90
20946;DHT22;10632;51.276;7.116;2023-05-10T04:27:46;11.50;99.90
20946;DHT22;10632;51.276;7.116;2023-05-10T04:30:13;11.50;99.90
20946;DHT22;10632;51.276;7.116;2023-05-10T04:32:40;11.60;99.90
20946;DHT22;10632;51.276;7.116;2023-05-10T04:35:09;11.60;99.90
20946;DHT22;10632;51.276;7.116;2023-05-10T04:37:36;11.60;99.90
20946;DHT22;10632;51.276;7.116;2023-05-10T04:40:04;11.60;99.90
20946;DHT22;10632;51.276;7.116;2023-05-10T04:42:31;11.60;99.90
20946;DHT22;10632;51.276;7.116;2023-05-10T04:44:58;11.70;99.90
20946;DHT22;10632;51.276;7.116;2023-05-10T04:47:25;11.70;99.90
20946;DHT22;10632;51.276;7.116;2023-05-10T04:49:52;11.70;99.90
20946;DHT22;10632;51.276;7.116;2023-05-10T04:52:20;11.80;99.90
20946;DHT22;10632;51.276;7.116;2023-05-10T04:54:47;11.80;99.90
20946;DHT22;10632;51.276;7.116;2023-05-10T04:57:14;11.90;99.90
20946;DHT22;10632;51.276;7.116;2023-05-10T04:59:41;11.90;99.90
20946;DHT22;10632;51.276;7.116;2023-05-10T05:02:08;12.00;99.90
20946;DHT22;10632;51.276;7.116;2023-05-10T05:04:35;12.00;99.90
20946;DHT22;10632;51.276;7.116;2023-05-10T05:09:40;12.00;99.90
20946;DHT22;10632;51.276;7.116;2023-05-10T05:12:07;11.90;99.90
20946;DHT22;10632;51.276;7.116;2023-05-10T05:14:39;11.90;99.90
20946;DHT22;10632;51.276;7.116;2023-05-10T05:17:06;11.90;99.90
20946;DHT22;10632;51.276;7.116;2023-05-10T05:19:33;11.90;99.90
20946;DHT22;10632;51.276;7.116;2023-05-10T05:22:01;11.90;99.90
20946;DHT22;10632;51.276;7.116;2023-05-10T05:24:28;11.90;99.90
20946;DHT22;10632;51.276;7.116;2023-05-10T05:26:56;11.90;99.90
20946;DHT22;10632;51.276;7.116;2023-05-10T05:29:23;11.80;99.90
20946;DHT22;10632;51.276;7.116;2023-05-10T05:31:51;11.80;99.90
20946;DHT22;10632;51.276;7.116;2023-05-10T05:34:18;11.80;99.90
20946;DHT22;10632;51.276;7.116;2023-05-10T05:36:46;11.80;99.90
20946;DHT22;10632;51.276;7.116;2023-05-10T05:39:12;11.80;99.90
20946;DHT22;10632;51.276;7.116;2023-05-10T05:41:39;11.80;99.90
20946;DHT22;10632;51.276;7.116;2023-05-10T05:44:08;11.80;99.90
20946;DHT22;10632;51.276;7.116;2023-05-10T05:46:35;11.80;99.90
20946;DHT22;10632;51.276;7.116;2023-05-10T05:49:02;11.80;99.90
20946;DHT22;10632;51.276;7.116;2023-05-10T05:51:32;11.80;99.90
20946;DHT22;10632;51.276;7.116;2023-05-10T05:54:00;11.80;99.90
20946;DHT22;10632;51.276;7.116;2023-05-10T05:56:27;11.80;99.90
20946;DHT22;10632;51.276;7.116;2023-05-10T05:58:54;11.80;99.90
20946;DHT22;10632;51.276;7.116;2023-05-10T06:01:25;11.80;99.90
20946;DHT22;10632;51.276;7.116;2023-05-10T06:03:52;11.90;99.90
20946;DHT22;10632;51.276;7.116;2023-05-10T06:06:19;11.90;99.90
20946;DHT22;10632;51.276;7.116;2023-05-10T06:08:46;11.90;99.90
20946;DHT22;10632;51.276;7.116;2023-05-10T06:11:13;11.90;99.90
20946;DHT22;10632;51.276;7.116;2023-05-10T06:13:40;11.90;99.90
20946;DHT22;10632;51.276;7.116;2023-05-10T06:16:07;11.90;99.90
20946;DHT22;10632;51.276;7.116;2023-05-10T06:18:36;11.90;99.90
20946;DHT22;10632;51.276;7.116;2023-05-10T06:21:02;11.90;99.90
20946;DHT22;10632;51.276;7.116;2023-05-10T06:23:29;11.90;99.90
20946;DHT22;10632;51.276;7.116;2023-05-10T06:25:56;11.90;99.90
20946;DHT22;10632;51.276;7.116;2023-05-10T06:28:23;11.90;99.90
20946;DHT22;10632;51.276;7.116;2023-05-10T06:30:50;12.00;99.90
20946;DHT22;10632;51.276;7.116;2023-05-10T06:33:18;12.00;99.90
20946;DHT22;10632;51.276;7.116;2023-05-10T06:35:46;12.00;99.90
20946;DHT22;10632;51.276;7.116;2023-05-10T06:38:13;12.00;99.90
20946;DHT22;10632;51.276;7.116;2023-05-10T06:40:41;12.00;99.90
20946;DHT22;10632;51.276;7.116;2023-05-10T06:43:09;12.00;99.90
20946;DHT22;10632;51.276;7.116;2023-05-10T06:45:35;12.00;99.90
20946;DHT22;10632;51.276;7.116;2023-05-10T06:48:03;12.00;99.90
20946;DHT22;10632;51.276;7.116;2023-05-10T06:50:29;12.10;99.90
20946;DHT22;10632;51.276;7.116;2023-05-10T06:52:58;12.10;99.90
20946;DHT22;10632;51.276;7.116;2023-05-10T06:55:24;12.10;99.90
20946;DHT22;10632;51.276;7.116;2023-05-10T06:57:52;12.10;99.90
20946;DHT22;10632;51.276;7.116;2023-05-10T07:00:19;12.10;99.90
20946;DHT22;10632;51.276;7.116;2023-05-10T07:02:46;12.10;99.90
20946;DHT22;10632;51.276;7.116;2023-05-10T07:05:13;12.10;99.90
20946;DHT22;10632;51.276;7.116;2023-05-10T07:07:41;12.00;99.90
20946;DHT22;10632;51.276;7.116;2023-05-10T07:10:09;12.00;99.90
20946;DHT22;10632;51.276;7.116;2023-05-10T07:12:36;12.00;99.90
20946;DHT22;10632;51.276;7.116;2023-05-10T07:15:04;12.00;99.90
20946;DHT22;10632;51.276;7.116;2023-05-10T07:17:31;12.00;99.90
20946;DHT22;10632;51.276;7.116;2023-05-10T07:19:59;11.90;99.90
20946;DHT22;10632;51.276;7.116;2023-05-10T07:22:25;11.90;99.90
20946;DHT22;10632;51.276;7.116;2023-05-10T07:24:53;11.90;99.90
20946;DHT22;10632;51.276;7.116;2023-05-10T07:27:21;11.90;99.90
20946;DHT22;10632;51.276;7.116;2023-05-10T07:29:48;11.90;99.90
20946;DHT22;10632;51.276;7.116;2023-05-10T07:32:15;11.90;99.90
20946;DHT22;10632;51.276;7.116;2023-05-10T07:34:42;11.90;99.90
20946;DHT22;10632;51.276;7.116;2023-05-10T07:37:09;11.90;99.90
20946;DHT22;10632;51.276;7.116;2023-05-10T07:39:36;11.90;99.90
20946;DHT22;10632;51.276;7.116;2023-05-10T07:42:03;11.90;99.90
20946;DHT22;10632;51.276;7.116;2023-05-10T07:44:31;11.90;99.90
20946;DHT22;10632;51.276;7.116;2023-05-10T07:46:58;11.90;99.90
20946;DHT22;10632;51.276;7.116;2023-05-10T07:49:26;11.90;99.90
20946;DHT22;10632;51.276;7.116;2023-05-10T07:51:52;12.00;99.90
20946;DHT22;10632;51.276;7.116;2023-05-10T07:54:19;11.90;99.90
20946;DHT22;10632;51.276;7.116;2023-05-10T07:56:47;11.90;99.90
20946;DHT22;10632;51.276;7.116;2023-05-10T07:59:15;12.00;99.90
20946;DHT22;10632;51.276;7.116;2023-05-10T08:01:44;12.00;99.90
20946;DHT22;10632;51.276;7.116;2023-05-10T08:04:11;12.10;99.90
20946;DHT22;10632;51.276;7.116;2023-05-10T08:06:39;12.10;99.90
20946;DHT22;10632;51.276;7.116;2023-05-10T08:09:06;12.20;99.90
20946;DHT22;10632;51.276;7.116;2023-05-10T08:11:33;12.20;99.90
20946;DHT22;10632;51.276;7.116;2023-05-10T08:14:00;12.30;99.90
20946;DHT22;10632;51.276;7.116;2023-05-10T08:16:27;12.20;99.90
20946;DHT22;10632;51.276;7.116;2023-05-10T08:18:55;12.30;99.90
20946;DHT22;10632;51.276;7.116;2023-05-10T08:21:22;12.30;99.90
20946;DHT22;10632;51.276;7.116;2023-05-10T08:23:49;12.30;99.90
20946;DHT22;10632;51.276;7.116;2023-05-10T08:26:16;12.30;99.90
20946;DHT22;10632;51.276;7.116;2023-05-10T08:28:43;12.30;99.90
20946;DHT22;10632;51.276;7.116;2023-05-10T08:31:10;12.40;99.90
20946;DHT22;10632;51.276;7.116;2023-05-10T08:33:37;12.40;99.90
20946;DHT22;10632;51.276;7.116;2023-05-10T08:36:05;12.50;99.90
20946;DHT22;10632;51.276;7.116;2023-05-10T08:38:33;12.50;99.90
20946;DHT22;10632;51.276;7.116;2023-05-10T08:41:02;12.60;99.90
20946;DHT22;10632;51.276;7.116;2023-05-10T08:43:29;12.60;99.90
20946;DHT22;10632;51.276;7.116;2023-05-10T08:46:00;12.60;99.90
20946;DHT22;10632;51.276;7.116;2023-05-10T08:48:32;12.60;99.90
20946;DHT22;10632;51.276;7.116;2023-05-10T08:51:03;12.60;99.90
20946;DHT22;10632;51.276;7.116;2023-05-10T08:53:33;12.60;99.90
20946;DHT22;10632;51.276;7.116;2023-05-10T08:56:02;12.70;99.90
20946;DHT22;10632;51.276;7.116;2023-05-10T08:58:30;12.70;99.90
20946;DHT22;10632;51.276;7.116;2023-05-10T09:00:57;12.70;99.90
20946;DHT22;10632;51.276;7.116;2023-05-10T09:03:24;12.80;99.90
20946;DHT22;10632;51.276;7.116;2023-05-10T09:05:52;12.80;99.90
20946;DHT22;10632;51.276;7.116;2023-05-10T09:08:19;12.80;99.90
20946;DHT22;10632;51.276;7.116;2023-05-10T09:10:48;12.70;99.90
20946;DHT22;10632;51.276;7.116;2023-05-10T09:13:15;12.60;99.90
20946;DHT22;10632;51.276;7.116;2023-05-10T09:15:44;12.60;99.90
20946;DHT22;10632;51.276;7.116;2023-05-10T09:18:11;12.60;99.90
20946;DHT22;10632;51.276;7.116;2023-05-10T09:20:38;12.60;99.90
20946;DHT22;10632;51.276;7.116;2023-05-10T09:23:05;12.60;99.90
20946;DHT22;10632;51.276;7.116;2023-05-10T09:25:33;12.70;99.90
20946;DHT22;10632;51.276;7.116;2023-05-10T09:28:01;12.70;99.90
20946;DHT22;10632;51.276;7.116;2023-05-10T09:30:30;12.80;99.90
20946;DHT22;10632;51.276;7.116;2023-05-10T09:32:57;12.80;99.90
20946;DHT22;10632;51.276;7.116;2023-05-10T09:35:26;12.90;99.90
20946;DHT22;10632;51.276;7.116;2023-05-10T09:37:55;12.80;99.90
20946;DHT22;10632;51.276;7.116;2023-05-10T09:40:23;12.90;99.90
20946;DHT22;10632;51.276;7.116;2023-05-10T09:42:54;12.80;99.90
20946;DHT22;10632;51.276;7.116;2023-05-10T09:45:24;12.80;99.90
20946;DHT22;10632;51.276;7.116;2023-05-10T09:47:51;12.80;99.90
20946;DHT22;10632;51.276;7.116;2023-05-10T09:50:19;12.80;99.90
20946;DHT22;10632;51.276;7.116;2023-05-10T09:52:49;12.90;99.90
20946;DHT22;10632;51.276;7.116;2023-05-10T09:55:18;12.80;99.90
20946;DHT22;10632;51.276;7.116;2023-05-10T09:57:46;12.80;99.90
20946;DHT22;10632;51.276;7.116;2023-05-10T10:00:17;12.70;99.90
20946;DHT22;10632;51.276;7.116;2023-05-10T10:02:47;12.80;99.90
20946;DHT22;10632;51.276;7.116;2023-05-10T10:05:15;12.70;99.90
20946;DHT22;10632;51.276;7.116;2023-05-10T10:07:42;12.70;99.90
20946;DHT22;10632;51.276;7.116;2023-05-10T10:10:09;12.60;99.90
20946;DHT22;10632;51.276;7.116;2023-05-10T10:12:39;12.50;99.90
20946;DHT22;10632;51.276;7.116;2023-05-10T10:15:10;12.50;99.90
20946;DHT22;10632;51.276;7.116;2023-05-10T10:17:37;12.50;99.90
20946;DHT22;10632;51.276;7.116;2023-05-10T10:20:08;12.50;99.90
20946;DHT22;10632;51.276;7.116;2023-05-10T10:22:35;12.40;99.90
20946;DHT22;10632;51.276;7.116;2023-05-10T10:25:04;12.40;99.90
20946;DHT22;10632;51.276;7.116;2023-05-10T10:27:39;12.40;99.90
20946;DHT22;10632;51.276;7.116;2023-05-10T10:30:15;12.50;99.90
20946;DHT22;10632;51.276;7.116;2023-05-10T10:32:59;12.50;99.90
20946;DHT22;10632;51.276;7.116;2023-05-10T10:35:29;12.50;99.90
20946;DHT22;10632;51.276;7.116;2023-05-10T10:37:57;12.50;99.90
20946;DHT22;10632;51.276;7.116;2023-05-10T10:40:25;12.60;99.90
20946;DHT22;10632;51.276;7.116;2023-05-10T10:42:53;12.60;99.90
20946;DHT22;10632;51.276;7.116;2023-05-10T10:45:21;12.70;99.90
20946;DHT22;10632;51.276;7.116;2023-05-10T10:47:48;12.70;99.90
20946;DHT22;10632;51.276;7.116;2023-05-10T10:50:15;12.70;99.90
20946;DHT22;10632;51.276;7.116;2023-05-10T10:52:44;12.80;99.90
20946;DHT22;10632;51.276;7.116;2023-05-10T10:55:15;12.80;99.90
20946;DHT22;10632;51.276;7.116;2023-05-10T10:57:46;12.90;99.90
20946;DHT22;10632;51.276;7.116;2023-05-10T11:00:24;12.90;99.90
20946;DHT22;10632;51.276;7.116;2023-05-10T11:02:52;13.00;99.90
20946;DHT22;10632;51.276;7.116;2023-05-10T11:05:38;12.90;99.90
20946;DHT22;10632;51.276;7.116;2023-05-10T11:08:18;12.90;99.90
20946;DHT22;10632;51.276;7.116;2023-05-10T11:10:53;12.80;99.90
20946;DHT22;10632;51.276;7.116;2023-05-10T11:13:27;12.80;99.90
20946;DHT22;10632;51.276;7.116;2023-05-10T11:15:56;12.80;99.90
20946;DHT22;10632;51.276;7.116;2023-05-10T11:18:25;12.80;99.90
20946;DHT22;10632;51.276;7.116;2023-05-10T11:20:56;12.90;99.90
20946;DHT22;10632;51.276;7.116;2023-05-10T11:23:30;12.90;99.90
20946;DHT22;10632;51.276;7.116;2023-05-10T11:25:57;13.10;99.90
20946;DHT22;10632;51.276;7.116;2023-05-10T11:28:26;13.20;99.90
20946;DHT22;10632;51.276;7.116;2023-05-10T11:30:53;13.20;99.90
20946;DHT22;10632;51.276;7.116;2023-05-10T11:33:21;13.30;99.90
20946;DHT22;10632;51.276;7.116;2023-05-10T11:35:48;13.30;99.90
20946;DHT22;10632;51.276;7.116;2023-05-10T11:38:15;13.30;99.90
20946;DHT22;10632;51.276;7.116;2023-05-10T11:40:43;13.30;99.90
20946;DHT22;10632;51.276;7.116;2023-05-10T11:43:10;13.40;99.90
20946;DHT22;10632;51.276;7.116;2023-05-10T11:45:38;13.40;99.90
20946;DHT22;10632;51.276;7.116;2023-05-10T11:48:06;13.50;99.90
20946;DHT22;10632;51.276;7.116;2023-05-10T11:50:34;13.60;99.90
20946;DHT22;10632;51.276;7.116;2023-05-10T11:53:03;13.60;99.90
20946;DHT22;10632;51.276;7.116;2023-05-10T11:55:33;13.60;99.90
20946;DHT22;10632;51.276;7.116;2023-05-10T11:58:02;13.70;99.90
20946;DHT22;10632;51.276;7.116;2023-05-10T12:00:29;13.70;99.90
20946;DHT22;10632;51.276;7.116;2023-05-10T12:02:56;13.60;99.90
20946;DHT22;10632;51.276;7.116;2023-05-10T12:05:24;13.60;99.90
20946;DHT22;10632;51.276;7.116;2023-05-10T12:07:51;13.60;99.90
20946;DHT22;10632;51.276;7.116;2023-05-10T12:10:27;13.50;99.90
20946;DHT22;10632;51.276;7.116;2023-05-10T12:12:54;13.50;99.90
20946;DHT22;10632;51.276;7.116;2023-05-10T12:15:23;13.40;99.90
20946;DHT22;10632;51.276;7.116;2023-05-10T12:17:51;13.30;99.90
20946;DHT22;10632;51.276;7.116;2023-05-10T12:20:19;13.30;99.90
20946;DHT22;10632;51.276;7.116;2023-05-10T12:22:49;13.20;99.90
20946;DHT22;10632;51.276;7.116;2023-05-10T12:25:16;13.20;99.90
20946;DHT22;10632;51.276;7.116;2023-05-10T12:27:54;13.20;99.90
20946;DHT22;10632;51.276;7.116;2023-05-10T12:30:24;13.20;99.90
20946;DHT22;10632;51.276;7.116;2023-05-10T12:32:51;13.20;99.90
20946;DHT22;10632;51.276;7.116;2023-05-10T12:35:19;13.20;99.90
20946;DHT22;10632;51.276;7.116;2023-05-10T12:37:47;13.20;99.90
20946;DHT22;10632;51.276;7.116;2023-05-10T12:40:16;13.30;99.90
20946;DHT22;10632;51.276;7.116;2023-05-10T12:42:43;13.30;99.90
20946;DHT22;10632;51.276;7.116;2023-05-10T12:45:11;13.40;99.90
20946;DHT22;10632;51.276;7.116;2023-05-10T12:47:39;13.40;99.90
20946;DHT22;10632;51.276;7.116;2023-05-10T12:50:09;13.50;99.90
20946;DHT22;10632;51.276;7.116;2023-05-10T12:52:36;13.50;99.90
20946;DHT22;10632;51.276;7.116;2023-05-10T12:55:04;13.50;99.90
20946;DHT22;10632;51.276;7.116;2023-05-10T12:57:31;13.50;99.90
20946;DHT22;10632;51.276;7.116;2023-05-10T12:59:58;13.50;99.90
20946;DHT22;10632;51.276;7.116;2023-05-10T13:02:25;13.50;99.90
20946;DHT22;10632;51.276;7.116;2023-05-10T13:04:53;13.60;99.90
20946;DHT22;10632;51.276;7.116;2023-05-10T13:07:20;13.60;99.90
20946;DHT22;10632;51.276;7.116;2023-05-10T13:09:47;13.70;99.90
20946;DHT22;10632;51.276;7.116;2023-05-10T13:12:14;13.70;99.90
20946;DHT22;10632;51.276;7.116;2023-05-10T13:14:41;13.80;99.90
20946;DHT22;10632;51.276;7.116;2023-05-10T13:17:08;13.90;99.90
20946;DHT22;10632;51.276;7.116;2023-05-10T13:19:35;14.00;99.90
20946;DHT22;10632;51.276;7.116;2023-05-10T13:22:04;14.00;99.90
20946;DHT22;10632;51.276;7.116;2023-05-10T13:24:31;14.10;99.90
20946;DHT22;10632;51.276;7.116;2023-05-10T13:26:58;14.10;99.90
20946;DHT22;10632;51.276;7.116;2023-05-10T13:29:28;14.20;99.90
20946;DHT22;10632;51.276;7.116;2023-05-10T13:31:55;14.20;99.90
20946;DHT22;10632;51.276;7.116;2023-05-10T13:34:22;14.20;99.90
20946;DHT22;10632;51.276;7.116;2023-05-10T13:36:49;14.30;99.90
20946;DHT22;10632;51.276;7.116;2023-05-10T13:39:18;14.30;99.90
20946;DHT22;10632;51.276;7.116;2023-05-10T13:41:45;14.30;99.90
20946;DHT22;10632;51.276;7.116;2023-05-10T13:44:13;14.20;99.90
20946;DHT22;10632;51.276;7.116;2023-05-10T13:46:40;14.20;99.90
20946;DHT22;10632;51.276;7.116;2023-05-10T13:49:08;14.20;99.90
20946;DHT22;10632;51.276;7.116;2023-05-10T13:51:38;14.20;99.90
20946;DHT22;10632;51.276;7.116;2023-05-10T13:54:05;14.20;99.90
20946;DHT22;10632;51.276;7.116;2023-05-10T13:56:34;14.20;99.90
20946;DHT22;10632;51.276;7.116;2023-05-10T13:59:01;14.20;99.90
20946;DHT22;10632;51.276;7.116;2023-05-10T14:01:28;14.20;99.90
20946;DHT22;10632;51.276;7.116;2023-05-10T14:03:55;14.20;99.90
20946;DHT22;10632;51.276;7.116;2023-05-10T14:06:22;14.20;99.90
20946;DHT22;10632;51.276;7.116;2023-05-10T14:08:51;14.20;99.90
20946;DHT22;10632;51.276;7.116;2023-05-10T14:11:19;14.30;99.90
20946;DHT22;10632;51.276;7.116;2023-05-10T14:13:47;14.30;99.90
20946;DHT22;10632;51.276;7.116;2023-05-10T14:16:16;14.30;99.90
20946;DHT22;10632;51.276;7.116;2023-05-10T14:18:43;14.30;99.90
20946;DHT22;10632;51.276;7.116;2023-05-10T14:21:10;14.20;99.90
20946;DHT22;10632;51.276;7.116;2023-05-10T14:23:37;14.20;99.90
20946;DHT22;10632;51.276;7.116;2023-05-10T14:26:04;14.20;99.90
20946;DHT22;10632;51.276;7.116;2023-05-10T14:28:32;14.20;99.90
20946;DHT22;10632;51.276;7.116;2023-05-10T14:31:00;14.20;99.90
20946;DHT22;10632;51.276;7.116;2023-05-10T14:33:27;14.20;99.90
20946;DHT22;10632;51.276;7.116;2023-05-10T14:35:54;14.20;99.90
20946;DHT22;10632;51.276;7.116;2023-05-10T14:38:22;14.20;99.90
20946;DHT22;10632;51.276;7.116;2023-05-10T14:40:49;14.20;99.90
20946;DHT22;10632;51.276;7.116;2023-05-10T14:43:16;14.20;99.90
20946;DHT22;10632;51.276;7.116;2023-05-10T14:45:43;14.30;99.90
20946;DHT22;10632;51.276;7.116;2023-05-10T14:48:11;14.40;99.90
20946;DHT22;10632;51.276;7.116;2023-05-10T14:50:40;14.50;99.90
20946;DHT22;10632;51.276;7.116;2023-05-10T14:53:07;14.60;99.90
20946;DHT22;10632;51.276;7.116;2023-05-10T14:55:34;14.70;99.90
20946;DHT22;10632;51.276;7.116;2023-05-10T14:58:02;14.70;99.90
20946;DHT22;10632;51.276;7.116;2023-05-10T15:00:29;14.70;99.90
20946;DHT22;10632;51.276;7.116;2023-05-10T15:02:56;14.70;99.90
20946;DHT22;10632;51.276;7.116;2023-05-10T15:05:25;14.70;99.90
20946;DHT22;10632;51.276;7.116;2023-05-10T15:07:51;14.70;99.90
20946;DHT22;10632;51.276;7.116;2023-05-10T15:10:20;14.70;99.90
20946;DHT22;10632;51.276;7.116;2023-05-10T15:12:47;14.80;99.90
20946;DHT22;10632;51.276;7.116;2023-05-10T15:15:14;14.80;99.90
20946;DHT22;10632;51.276;7.116;2023-05-10T15:17:40;14.80;99.90
20946;DHT22;10632;51.276;7.116;2023-05-10T15:20:08;14.90;99.90
20946;DHT22;10632;51.276;7.116;2023-05-10T15:22:36;14.90;99.90
20946;DHT22;10632;51.276;7.116;2023-05-10T15:25:04;14.90;99.90
20946;DHT22;10632;51.276;7.116;2023-05-10T15:27:31;14.90;99.90
20946;DHT22;10632;51.276;7.116;2023-05-10T15:29:58;14.80;99.90
20946;DHT22;10632;51.276;7.116;2023-05-10T15:32:25;14.80;99.90
20946;DHT22;10632;51.276;7.116;2023-05-10T15:34:54;14.80;99.90
20946;DHT22;10632;51.276;7.116;2023-05-10T15:37:21;14.80;99.90
20946;DHT22;10632;51.276;7.116;2023-05-10T15:39:51;14.80;99.90
20946;DHT22;10632;51.276;7.116;2023-05-10T15:42:18;14.80;99.90